Time;durP1;ratioP1;P1;durP2;ratioP2;P2;SDS_P1;SDS_P2;PMS_P1;PMS_P2;Temp;Humidity;BMP_temperature;BMP_pressure;BME280_temperature;BME280_humidity;BME280_pressure;Samples;Min_cycle;Max_cycle;Signal;HPM_P1;HPM_P2
2023/05/25 00:00:10;;;;;;;;;;;;;;;20.96;72.11;98534.53;2085859;28;19928;-53
2023/05/25 00:01:10;;;;;;;;;;;;;;;20.95;72.15;98539.09;2086269;28;20321;-52
2023/05/25 00:02:14;;;;;;;;;;;;;;;20.95;71.77;98535.59;2080838;28;19925;-47
2023/05/25 00:03:15;;;;;;;;;;;;;;;20.95;71.90;98533.72;2084894;28;19928;-53
2023/05/25 00:04:18;;;;;;;;;;;;;;;20.96;71.93;98531.84;2084014;28;20017;-53
2023/05/25 00:05:20;;;;;;;;;;;;;;;20.97;72.12;98530.78;2085448;28;19950;-56
2023/05/25 00:06:21;;;;;;;;;;;;;;;20.96;71.82;98526.44;2077556;28;20038;-57
2023/05/25 00:07:21;;;;;;;;;;;;;;;20.97;71.53;98525.38;2084318;28;19981;-55
2023/05/25 00:08:23;;;;;;;;;;;;;;;20.97;71.59;98528.06;2085097;28;19990;-51
2023/05/25 00:09:24;;;;;;;;;;;;;;;20.96;72.36;98534.53;2088679;28;19983;-50
2023/05/25 00:10:25;;;;;;;;;;;;;;;20.96;72.53;98529.13;2083892;28;19929;-54
2023/05/25 00:11:26;;;;;;;;;;;;;;;20.97;71.98;98525.38;2088483;28;20512;-52
2023/05/25 00:12:27;;;;;;;;;;;;;;;20.97;72.05;98528.91;2080015;28;20005;-48
2023/05/25 00:13:28;;;;;;;;;;;;;;;20.97;71.83;98530.78;2083449;28;19932;-49
2023/05/25 00:14:30;;;;;;;;;;;;;;;20.96;72.28;98519.16;2083363;28;19920;-51
2023/05/25 00:15:30;;;;;;;;;;;;;;;20.97;71.75;98528.91;2084111;28;19924;-47
2023/05/25 00:16:36;;;;;;;;;;;;;;;20.97;71.75;98525.38;2085333;28;19943;-55
2023/05/25 00:17:36;;;;;;;;;;;;;;;20.97;71.81;98523.50;2086080;28;19928;-57
2023/05/25 00:18:38;;;;;;;;;;;;;;;20.97;71.98;98523.50;2084261;28;19928;-52
2023/05/25 00:19:41;;;;;;;;;;;;;;;20.98;72.36;98527.06;2079915;28;19928;-53
2023/05/25 00:20:44;;;;;;;;;;;;;;;20.96;71.76;98524.56;2081842;28;20028;-51
2023/05/25 00:21:47;;;;;;;;;;;;;;;20.96;72.06;98521.88;2087042;28;20007;-47
2023/05/25 00:22:48;;;;;;;;;;;;;;;20.97;72.61;98525.38;2076585;28;19967;-56
2023/05/25 00:23:49;;;;;;;;;;;;;;;20.96;71.93;98521.03;2088031;28;20001;-49
2023/05/25 00:24:50;;;;;;;;;;;;;;;20.97;71.89;98528.06;2088178;28;19970;-50
2023/05/25 00:25:51;;;;;;;;;;;;;;;20.97;71.73;98523.50;2084288;28;19987;-54
2023/05/25 00:26:52;;;;;;;;;;;;;;;20.99;71.80;98523.28;2084547;28;20483;-56
2023/05/25 00:27:53;;;;;;;;;;;;;;;20.98;71.86;98522.47;2087395;28;19928;-55
2023/05/25 00:28:54;;;;;;;;;;;;;;;21.00;72.06;98521.41;2087639;28;20632;-54
2023/05/25 00:29:55;;;;;;;;;;;;;;;21.00;71.88;98532.22;2085343;28;19924;-48
2023/05/25 00:30:56;;;;;;;;;;;;;;;20.99;71.96;98526.00;2085113;28;19924;-53
2023/05/25 00:31:57;;;;;;;;;;;;;;;20.98;71.90;98529.75;2087598;28;20757;-47
2023/05/25 00:32:58;;;;;;;;;;;;;;;21.00;71.58;98530.31;2087989;28;19924;-51
2023/05/25 00:33:59;;;;;;;;;;;;;;;20.97;72.00;98514.59;2079547;28;19928;-53
2023/05/25 00:35:01;;;;;;;;;;;;;;;20.97;71.97;98526.19;2084035;28;19924;-55
2023/05/25 00:36:03;;;;;;;;;;;;;;;20.95;72.49;98524.81;2084724;28;19944;-55
2023/05/25 00:37:04;;;;;;;;;;;;;;;20.96;72.15;98526.44;2090774;28;19942;-54
2023/05/25 00:38:05;;;;;;;;;;;;;;;20.98;72.58;98524.34;2086691;28;20553;-54
2023/05/25 00:39:06;;;;;;;;;;;;;;;20.97;72.42;98526.19;2084226;28;19921;-50
2023/05/25 00:40:09;;;;;;;;;;;;;;;20.98;71.74;98518.97;2081519;28;20542;-50
2023/05/25 00:41:11;;;;;;;;;;;;;;;20.99;71.95;98526.00;2074704;28;22693;-53
2023/05/25 00:42:11;;;;;;;;;;;;;;;21.00;71.77;98522.25;2085323;28;19928;-54
2023/05/25 00:43:12;;;;;;;;;;;;;;;20.98;71.85;98522.47;2077447;28;20564;-47
2023/05/25 00:44:14;;;;;;;;;;;;;;;20.98;72.45;98516.25;2080992;28;19928;-53
2023/05/25 00:45:15;;;;;;;;;;;;;;;20.98;72.36;98518.97;2083634;28;19934;-55
2023/05/25 00:46:15;;;;;;;;;;;;;;;20.96;72.36;98516.47;2086234;28;20637;-50
2023/05/25 00:47:17;;;;;;;;;;;;;;;20.98;72.28;98518.97;2084472;28;19929;-53
2023/05/25 00:48:17;;;;;;;;;;;;;;;20.99;72.21;98520.59;2084147;28;19924;-50
2023/05/25 00:49:20;;;;;;;;;;;;;;;20.98;71.90;98516.25;2083648;28;19927;-50
2023/05/25 00:50:22;;;;;;;;;;;;;;;20.97;72.21;98512.72;2083464;28;20429;-49
2023/05/25 00:51:26;;;;;;;;;;;;;;;20.95;72.57;98514.00;2078102;28;20288;-55
2023/05/25 00:52:26;;;;;;;;;;;;;;;20.97;72.14;98511.91;2083060;28;20039;-52
2023/05/25 00:53:28;;;;;;;;;;;;;;;20.96;72.68;98512.97;2086463;28;19955;-50
2023/05/25 00:54:28;;;;;;;;;;;;;;;20.96;72.65;98512.97;2082790;28;19970;-53
2023/05/25 00:55:33;;;;;;;;;;;;;;;20.94;72.30;98515.88;2082650;28;20763;-53
2023/05/25 00:56:37;;;;;;;;;;;;;;;20.95;72.26;98514.00;2084381;28;19920;-53
2023/05/25 00:57:44;;;;;;;;;;;;;;;20.95;72.54;98519.41;2080051;28;20281;-57
2023/05/25 00:58:45;;;;;;;;;;;;;;;20.96;72.77;98521.88;2084091;28;19925;-54
2023/05/25 00:59:48;;;;;;;;;;;;;;;20.97;72.42;98511.91;2085113;28;19928;-49
2023/05/25 01:00:49;;;;;;;;;;;;;;;20.97;72.34;98512.72;2084806;28;19928;-55
2023/05/25 01:01:52;;;;;;;;;;;;;;;20.98;72.04;98516.25;2084158;28;19947;-52
2023/05/25 01:02:55;;;;;;;;;;;;;;;20.98;72.07;98518.97;2081301;28;21111;-50
2023/05/25 01:03:58;;;;;;;;;;;;;;;20.97;72.31;98518.13;2076582;28;20548;-52
2023/05/25 01:05:01;;;;;;;;;;;;;;;20.97;72.50;98522.69;2085112;28;20290;-56
2023/05/25 01:06:04;;;;;;;;;;;;;;;20.96;72.54;98521.88;2081712;28;19932;-52
2023/05/25 01:07:07;;;;;;;;;;;;;;;20.96;72.17;98521.03;2085497;28;20620;-52
2023/05/25 01:08:09;;;;;;;;;;;;;;;20.96;72.16;98515.66;2084306;28;19968;-52
2023/05/25 01:09:13;;;;;;;;;;;;;;;20.97;72.16;98520.00;2086984;28;19928;-50
2023/05/25 01:10:15;;;;;;;;;;;;;;;20.97;71.90;98518.13;2086801;28;19982;-55
2023/05/25 01:11:18;;;;;;;;;;;;;;;20.98;72.50;98524.34;2088291;28;20007;-53
2023/05/25 01:12:22;;;;;;;;;;;;;;;20.96;72.40;98524.56;2083727;28;19924;-51
2023/05/25 01:13:22;;;;;;;;;;;;;;;20.98;72.11;98524.34;2085035;28;19924;-49
2023/05/25 01:14:25;;;;;;;;;;;;;;;20.98;72.08;98518.97;2086900;28;19928;-52
2023/05/25 01:15:26;;;;;;;;;;;;;;;20.97;72.59;98528.06;2075546;28;19974;-57
2023/05/25 01:16:28;;;;;;;;;;;;;;;20.96;72.65;98524.56;2082016;28;20398;-55
2023/05/25 01:17:28;;;;;;;;;;;;;;;20.97;72.14;98528.91;2082495;28;19977;-56
2023/05/25 01:18:30;;;;;;;;;;;;;;;20.97;72.09;98522.69;2079725;28;19928;-51
2023/05/25 01:19:32;;;;;;;;;;;;;;;20.97;71.92;98528.91;2083686;28;20298;-53
2023/05/25 01:20:34;;;;;;;;;;;;;;;20.96;72.08;98527.25;2081211;28;19928;-57
2023/05/25 01:21:40;;;;;;;;;;;;;;;20.99;72.07;98534.09;2079380;28;19924;-54
2023/05/25 01:22:44;;;;;;;;;;;;;;;20.98;72.39;98537.84;2085651;28;19920;-53
2023/05/25 01:23:46;;;;;;;;;;;;;;;20.96;72.51;98526.44;2084741;28;19924;-50
2023/05/25 01:24:51;;;;;;;;;;;;;;;20.98;72.76;98541.34;2082486;28;19928;-51
2023/05/25 01:25:53;;;;;;;;;;;;;;;20.99;72.20;98536.78;2082382;28;19936;-53
2023/05/25 01:26:55;;;;;;;;;;;;;;;21.01;72.30;98540.09;2086302;28;19927;-52
2023/05/25 01:27:57;;;;;;;;;;;;;;;21.01;72.36;98545.47;2084016;28;20015;-55
2023/05/25 01:29:01;;;;;;;;;;;;;;;21.00;72.00;98533.03;2085115;28;19921;-55
2023/05/25 01:30:05;;;;;;;;;;;;;;;21.01;72.43;98540.09;2088782;28;19941;-56
2023/05/25 01:31:07;;;;;;;;;;;;;;;21.01;72.35;98534.69;2085410;28;19965;-50
2023/05/25 01:32:08;;;;;;;;;;;;;;;21.01;72.39;98537.38;2084956;28;19989;-55
2023/05/25 01:33:10;;;;;;;;;;;;;;;21.01;72.32;98539.28;2075429;28;21664;-53
2023/05/25 01:34:12;;;;;;;;;;;;;;;20.98;72.48;98544.03;2082390;28;20287;-53
2023/05/25 01:35:14;;;;;;;;;;;;;;;20.98;72.65;98537.84;2085539;28;20024;-53
2023/05/25 01:36:15;;;;;;;;;;;;;;;20.98;72.17;98535.13;2082872;28;20534;-52
2023/05/25 01:37:18;;;;;;;;;;;;;;;20.99;72.30;98539.47;2083816;28;19928;-48
2023/05/25 01:38:18;;;;;;;;;;;;;;;20.98;72.26;98535.97;2084511;28;20498;-50
2023/05/25 01:39:21;;;;;;;;;;;;;;;21.00;72.08;98537.59;2084064;28;19929;-55
2023/05/25 01:40:21;;;;;;;;;;;;;;;21.01;72.08;98540.09;2085421;28;19928;-52
2023/05/25 01:41:23;;;;;;;;;;;;;;;21.00;72.18;98530.31;2084083;28;19929;-50
2023/05/25 01:42:23;;;;;;;;;;;;;;;21.01;72.56;98531.19;2084395;28;19920;-54
2023/05/25 01:43:25;;;;;;;;;;;;;;;21.00;72.49;98546.50;2082487;28;20025;-49
2023/05/25 01:44:25;;;;;;;;;;;;;;;20.99;72.19;98536.78;2084915;28;19985;-54
2023/05/25 01:45:27;;;;;;;;;;;;;;;21.00;72.22;98541.13;2083151;28;19930;-52
2023/05/25 01:46:31;;;;;;;;;;;;;;;21.01;72.08;98534.69;2083465;28;19924;-53
2023/05/25 01:47:39;;;;;;;;;;;;;;;20.98;72.56;98533.25;2076913;28;19924;-55
2023/05/25 01:48:44;;;;;;;;;;;;;;;20.97;72.29;98534.28;2077966;28;20967;-55
2023/05/25 01:49:51;;;;;;;;;;;;;;;20.98;72.30;98530.56;2080048;28;19924;-52
2023/05/25 01:50:55;;;;;;;;;;;;;;;20.99;72.36;98534.09;2086281;28;20009;-51
2023/05/25 01:52:00;;;;;;;;;;;;;;;20.97;73.05;98537.00;2081975;28;19981;-53
2023/05/25 01:53:03;;;;;;;;;;;;;;;20.97;72.86;98541.56;2085412;28;19924;-52
2023/05/25 01:54:07;;;;;;;;;;;;;;;20.96;72.61;98540.75;2085900;28;19924;-47
2023/05/25 01:55:11;;;;;;;;;;;;;;;20.97;72.48;98542.38;2085469;28;20687;-51
2023/05/25 01:56:13;;;;;;;;;;;;;;;21.00;72.47;98537.59;2083061;28;19935;-49
2023/05/25 01:57:16;;;;;;;;;;;;;;;20.98;72.11;98533.25;2079162;28;19936;-54
2023/05/25 01:58:18;;;;;;;;;;;;;;;20.99;72.32;98534.09;2080179;28;19929;-54
2023/05/25 01:59:20;;;;;;;;;;;;;;;20.96;72.42;98538.03;2086650;28;19989;-50
2023/05/25 02:00:22;;;;;;;;;;;;;;;20.97;72.33;98537.00;2080645;28;20015;-53
2023/05/25 02:01:23;;;;;;;;;;;;;;;20.99;72.12;98534.09;2083161;28;19928;-53
2023/05/25 02:02:25;;;;;;;;;;;;;;;20.99;72.52;98536.78;2080380;28;20017;-54
2023/05/25 02:03:25;;;;;;;;;;;;;;;20.99;72.23;98531.38;2082119;28;20377;-54
2023/05/25 02:04:27;;;;;;;;;;;;;;;20.97;72.24;98538.88;2082186;28;19927;-57
2023/05/25 02:05:28;;;;;;;;;;;;;;;20.97;72.36;98539.69;2078258;28;19921;-53
2023/05/25 02:06:29;;;;;;;;;;;;;;;20.96;72.66;98529.97;2087188;28;19974;-55
2023/05/25 02:07:30;;;;;;;;;;;;;;;20.98;72.29;98533.25;2088869;28;19932;-50
2023/05/25 02:08:33;;;;;;;;;;;;;;;20.99;72.21;98539.47;2086255;28;20529;-56
2023/05/25 02:09:33;;;;;;;;;;;;;;;21.00;72.35;98541.13;2085390;28;19928;-50
2023/05/25 02:10:34;;;;;;;;;;;;;;;20.98;72.59;98537.84;2084088;28;19928;-47
2023/05/25 02:11:35;;;;;;;;;;;;;;;20.98;73.39;98537.84;2087502;28;20763;-51
2023/05/25 02:12:36;;;;;;;;;;;;;;;20.96;72.57;98543.44;2081965;28;19924;-50
2023/05/25 02:13:37;;;;;;;;;;;;;;;20.98;72.58;98535.13;2085314;28;20591;-50
2023/05/25 02:14:38;;;;;;;;;;;;;;;20.98;72.64;98544.03;2083662;28;19924;-50
2023/05/25 02:15:39;;;;;;;;;;;;;;;20.98;72.71;98540.53;2087019;28;19925;-51
2023/05/25 02:16:41;;;;;;;;;;;;;;;20.94;73.26;98540.13;2083097;28;19929;-50
2023/05/25 02:17:42;;;;;;;;;;;;;;;20.94;72.91;98542.00;2078651;28;20453;-52
2023/05/25 02:18:44;;;;;;;;;;;;;;;20.95;72.45;98541.78;2086731;28;19924;-52
2023/05/25 02:19:46;;;;;;;;;;;;;;;20.95;72.87;98541.78;2082573;28;19931;-52
2023/05/25 02:20:47;;;;;;;;;;;;;;;20.96;72.61;98537.22;2085423;28;19982;-55
2023/05/25 02:21:49;;;;;;;;;;;;;;;20.96;72.61;98538.03;2083026;28;19950;-53
2023/05/25 02:22:49;;;;;;;;;;;;;;;20.98;72.51;98540.53;2083364;28;19921;-52
2023/05/25 02:23:53;;;;;;;;;;;;;;;20.98;72.54;98540.53;2084072;28;19974;-51
2023/05/25 02:24:54;;;;;;;;;;;;;;;20.97;72.53;98539.69;2075438;28;19925;-55
2023/05/25 02:25:55;;;;;;;;;;;;;;;20.96;72.57;98534.53;2073431;28;20063;-56
2023/05/25 02:26:56;;;;;;;;;;;;;;;20.98;72.23;98540.53;2076047;28;20463;-56
2023/05/25 02:27:57;;;;;;;;;;;;;;;20.99;72.44;98539.47;2079244;28;19928;-48
2023/05/25 02:28:58;;;;;;;;;;;;;;;20.97;72.26;98538.88;2081361;28;20001;-52
2023/05/25 02:29:59;;;;;;;;;;;;;;;20.97;72.30;98538.88;2084928;28;19978;-49
2023/05/25 02:31:00;;;;;;;;;;;;;;;20.97;72.55;98549.66;2080266;28;20656;-49
2023/05/25 02:32:01;;;;;;;;;;;;;;;20.97;72.30;98539.69;2084081;28;19924;-50
2023/05/25 02:33:02;;;;;;;;;;;;;;;20.97;72.42;98546.94;2080638;28;19935;-52
2023/05/25 02:34:03;;;;;;;;;;;;;;;20.95;72.42;98547.19;2082333;28;20461;-56
2023/05/25 02:35:04;;;;;;;;;;;;;;;20.97;72.57;98550.47;2082949;28;19985;-53
2023/05/25 02:36:06;;;;;;;;;;;;;;;20.96;72.91;98550.72;2083316;28;19929;-50
2023/05/25 02:37:06;;;;;;;;;;;;;;;20.95;72.23;98549.06;2083371;28;19969;-50
2023/05/25 02:38:08;;;;;;;;;;;;;;;20.95;72.32;98549.88;2084279;28;20317;-47
2023/05/25 02:39:10;;;;;;;;;;;;;;;20.95;72.41;98547.19;2087631;28;19954;-53
2023/05/25 02:40:12;;;;;;;;;;;;;;;20.96;72.41;98553.41;2085712;28;19971;-55
2023/05/25 02:41:14;;;;;;;;;;;;;;;20.96;72.02;98553.41;2082845;28;19995;-56
2023/05/25 02:42:16;;;;;;;;;;;;;;;20.96;72.12;98553.41;2078546;28;21335;-57
2023/05/25 02:43:16;;;;;;;;;;;;;;;20.97;72.03;98557.75;2083807;28;20015;-55
2023/05/25 02:44:17;;;;;;;;;;;;;;;20.95;72.19;98557.97;2084716;28;20290;-53
2023/05/25 02:45:18;;;;;;;;;;;;;;;20.96;72.02;98553.41;2086723;28;19962;-50
2023/05/25 02:46:19;;;;;;;;;;;;;;;20.95;72.20;98554.47;2084767;28;20588;-52
2023/05/25 02:47:20;;;;;;;;;;;;;;;20.95;72.28;98555.28;2082428;28;19924;-50
2023/05/25 02:48:21;;;;;;;;;;;;;;;20.95;72.27;98552.59;2081365;28;19925;-52
2023/05/25 02:49:22;;;;;;;;;;;;;;;20.95;72.14;98551.75;2086037;28;19928;-57
2023/05/25 02:50:23;;;;;;;;;;;;;;;20.96;72.53;98545.31;2085136;28;19925;-54
2023/05/25 02:51:24;;;;;;;;;;;;;;;20.95;72.44;98559.84;2085038;28;19966;-53
2023/05/25 02:52:25;;;;;;;;;;;;;;;20.95;72.24;98557.97;2086408;28;20236;-56
2023/05/25 02:53:26;;;;;;;;;;;;;;;20.96;72.11;98554.22;2081489;28;21071;-52
2023/05/25 02:54:29;;;;;;;;;;;;;;;20.95;72.25;98555.28;2085117;28;19925;-53
2023/05/25 02:55:29;;;;;;;;;;;;;;;20.94;72.16;98550.09;2082541;28;20401;-53
2023/05/25 02:56:30;;;;;;;;;;;;;;;20.94;72.10;98561.69;2085294;28;20007;-50
2023/05/25 02:57:31;;;;;;;;;;;;;;;20.95;72.17;98563.38;2085383;28;19924;-56
2023/05/25 02:58:32;;;;;;;;;;;;;;;20.95;72.10;98557.16;2087263;28;19920;-49
2023/05/25 02:59:33;;;;;;;;;;;;;;;20.97;72.12;98563.13;2082320;28;19924;-52
2023/05/25 03:00:35;;;;;;;;;;;;;;;20.95;72.24;98563.38;2086368;28;19966;-54
2023/05/25 03:01:35;;;;;;;;;;;;;;;20.95;72.46;98559.84;2081921;28;19964;-54
2023/05/25 03:02:36;;;;;;;;;;;;;;;20.95;72.46;98567.94;2083741;28;19928;-51
2023/05/25 03:03:37;;;;;;;;;;;;;;;20.94;72.36;98560.88;2085206;28;19928;-55
2023/05/25 03:04:40;;;;;;;;;;;;;;;20.93;72.24;98565.44;2079299;28;20002;-49
2023/05/25 03:05:41;;;;;;;;;;;;;;;20.94;72.29;98558.19;2083197;28;19931;-53
2023/05/25 03:06:44;;;;;;;;;;;;;;;20.94;72.34;98564.41;2085935;28;20282;-56
2023/05/25 03:07:44;;;;;;;;;;;;;;;20.93;72.03;98564.63;2083805;28;20375;-52
2023/05/25 03:08:46;;;;;;;;;;;;;;;20.96;72.54;98566.88;2086431;28;19943;-48
2023/05/25 03:09:47;;;;;;;;;;;;;;;20.91;72.93;98564.00;2086758;28;19928;-53
2023/05/25 03:10:49;;;;;;;;;;;;;;;20.88;72.71;98562.59;2087072;28;20618;-50
2023/05/25 03:11:49;;;;;;;;;;;;;;;20.91;72.62;98566.72;2089979;28;20759;-48
2023/05/25 03:12:51;;;;;;;;;;;;;;;20.90;72.69;98559.69;2085399;28;19929;-50
2023/05/25 03:13:51;;;;;;;;;;;;;;;20.91;72.30;98566.72;2079852;28;20733;-53
2023/05/25 03:14:53;;;;;;;;;;;;;;;20.92;72.45;98565.66;2084228;28;19924;-55
2023/05/25 03:15:53;;;;;;;;;;;;;;;20.90;73.08;98565.06;2081565;28;19925;-49
2023/05/25 03:16:55;;;;;;;;;;;;;;;20.89;72.61;98566.91;2081808;28;19928;-53
2023/05/25 03:17:59;;;;;;;;;;;;;;;20.91;72.40;98575.63;2083207;28;19921;-55
2023/05/25 03:19:01;;;;;;;;;;;;;;;20.92;72.33;98568.34;2085113;28;19925;-56
2023/05/25 03:20:03;;;;;;;;;;;;;;;20.91;72.30;98572.94;2077801;28;19924;-54
2023/05/25 03:21:04;;;;;;;;;;;;;;;20.92;72.36;98568.34;2086881;28;19932;-53
2023/05/25 03:22:05;;;;;;;;;;;;;;;20.91;72.41;98572.09;2083608;28;20607;-51
2023/05/25 03:23:06;;;;;;;;;;;;;;;20.92;72.15;98571.91;2084088;28;19928;-49
2023/05/25 03:24:07;;;;;;;;;;;;;;;20.93;72.10;98572.72;2084434;28;20162;-48
2023/05/25 03:25:11;;;;;;;;;;;;;;;20.92;72.40;98573.75;2084887;28;19939;-48
2023/05/25 03:26:12;;;;;;;;;;;;;;;20.91;72.41;98572.09;2086998;28;19920;-49
2023/05/25 03:27:13;;;;;;;;;;;;;;;20.89;72.75;98566.09;2084865;28;20504;-53
2023/05/25 03:28:14;;;;;;;;;;;;;;;20.89;72.69;98568.78;2085919;28;19931;-49
2023/05/25 03:29:15;;;;;;;;;;;;;;;20.87;72.94;98574.44;2084154;28;20510;-53
2023/05/25 03:30:16;;;;;;;;;;;;;;;20.87;73.08;98574.44;2084069;28;19924;-47
2023/05/25 03:31:17;;;;;;;;;;;;;;;20.89;72.60;98571.50;2073366;28;19986;-51
2023/05/25 03:32:18;;;;;;;;;;;;;;;20.88;72.68;98572.53;2076686;28;20569;-51
2023/05/25 03:33:19;;;;;;;;;;;;;;;20.89;72.41;98575.00;2084047;28;19924;-47
2023/05/25 03:34:20;;;;;;;;;;;;;;;20.92;72.45;98573.75;2085383;28;19920;-54
2023/05/25 03:35:22;;;;;;;;;;;;;;;20.90;72.60;98573.97;2085285;28;19930;-53
2023/05/25 03:36:26;;;;;;;;;;;;;;;20.90;72.43;98575.84;2086229;28;19993;-55
2023/05/25 03:37:26;;;;;;;;;;;;;;;20.91;72.26;98572.94;2084393;28;19920;-53
2023/05/25 03:38:28;;;;;;;;;;;;;;;20.92;72.39;98587.22;2084863;28;19921;-51
2023/05/25 03:39:28;;;;;;;;;;;;;;;20.90;72.39;98575.84;2084557;28;19966;-49
2023/05/25 03:40:31;;;;;;;;;;;;;;;20.91;72.24;98583.72;2087468;28;19924;-50
2023/05/25 03:41:31;;;;;;;;;;;;;;;20.90;72.52;98579.38;2083889;28;19986;-51
2023/05/25 03:42:33;;;;;;;;;;;;;;;20.91;72.24;98582.88;2087813;28;19920;-50
2023/05/25 03:43:33;;;;;;;;;;;;;;;20.90;72.33;98590.16;2082485;28;19986;-53
2023/05/25 03:44:35;;;;;;;;;;;;;;;20.91;72.37;98589.09;2084786;28;19932;-46
2023/05/25 03:45:35;;;;;;;;;;;;;;;20.92;72.55;98576.44;2080654;28;20002;-55
2023/05/25 03:46:37;;;;;;;;;;;;;;;20.90;72.78;98592.84;2086573;28;19932;-50
2023/05/25 03:47:37;;;;;;;;;;;;;;;20.90;72.60;98589.34;2075595;28;19924;-54
2023/05/25 03:48:38;;;;;;;;;;;;;;;20.90;72.29;98589.34;2085242;28;19924;-56
2023/05/25 03:49:39;;;;;;;;;;;;;;;20.90;72.24;98586.63;2087408;28;19921;-54
2023/05/25 03:50:40;;;;;;;;;;;;;;;20.92;72.37;98587.22;2085515;28;19982;-54
2023/05/25 03:51:41;;;;;;;;;;;;;;;20.90;72.26;98589.34;2087958;28;20596;-49
2023/05/25 03:52:42;;;;;;;;;;;;;;;20.91;72.25;98585.59;2087907;28;19962;-53
2023/05/25 03:53:43;;;;;;;;;;;;;;;20.89;72.44;98584.97;2083814;28;19924;-54
2023/05/25 03:54:44;;;;;;;;;;;;;;;20.89;72.44;98588.50;2081061;28;20451;-53
2023/05/25 03:55:50;;;;;;;;;;;;;;;20.89;72.40;98590.38;2085569;28;20827;-51
2023/05/25 03:56:52;;;;;;;;;;;;;;;20.89;72.44;98593.06;2082989;28;20841;-52
2023/05/25 03:57:53;;;;;;;;;;;;;;;20.89;72.50;98585.78;2085559;28;19921;-53
2023/05/25 03:58:54;;;;;;;;;;;;;;;20.89;72.44;98596.56;2086113;28;19928;-56
2023/05/25 03:59:55;;;;;;;;;;;;;;;20.90;72.41;98592.84;2087817;28;19929;-56
2023/05/25 04:00:55;;;;;;;;;;;;;;;20.91;72.36;98596.38;2085543;28;20436;-54
2023/05/25 04:01:57;;;;;;;;;;;;;;;20.91;72.56;98599.06;2078932;28;19978;-53
2023/05/25 04:02:57;;;;;;;;;;;;;;;20.90;72.51;98597.44;2083442;28;20533;-50
2023/05/25 04:03:59;;;;;;;;;;;;;;;20.90;72.60;98606.34;2088722;28;19928;-53
2023/05/25 04:04:59;;;;;;;;;;;;;;;20.89;72.69;98596.56;2069460;28;20230;-49
2023/05/25 04:06:01;;;;;;;;;;;;;;;20.88;72.54;98605.72;2084066;28;19981;-52
2023/05/25 04:07:01;;;;;;;;;;;;;;;20.87;73.20;98605.94;2086799;28;20447;-52
2023/05/25 04:08:03;;;;;;;;;;;;;;;20.88;72.71;98604.91;2086699;28;19921;-55
2023/05/25 04:09:04;;;;;;;;;;;;;;;20.88;72.61;98605.72;2085065;28;20012;-48
2023/05/25 04:10:06;;;;;;;;;;;;;;;20.88;72.62;98607.59;2085865;28;20736;-52
2023/05/25 04:11:07;;;;;;;;;;;;;;;20.87;73.04;98609.47;2084107;28;19925;-50
2023/05/25 04:12:09;;;;;;;;;;;;;;;20.87;72.63;98605.94;2079069;28;19928;-51
2023/05/25 04:13:10;;;;;;;;;;;;;;;20.87;72.42;98614.03;2081325;28;19924;-53
2023/05/25 04:14:12;;;;;;;;;;;;;;;20.87;72.84;98609.47;2085931;28;20038;-54
2023/05/25 04:15:13;;;;;;;;;;;;;;;20.89;72.48;98609.22;2081007;28;19970;-48
2023/05/25 04:16:14;;;;;;;;;;;;;;;20.88;72.51;98613.00;2079220;28;19924;-56
2023/05/25 04:17:16;;;;;;;;;;;;;;;20.87;72.85;98606.78;2078692;28;19928;-54
2023/05/25 04:18:17;;;;;;;;;;;;;;;20.93;72.32;98610.47;2077423;28;20704;-48
2023/05/25 04:19:18;;;;;;;;;;;;;;;20.93;72.19;98613.16;2079635;28;19924;-53
2023/05/25 04:20:19;;;;;;;;;;;;;;;20.92;72.31;98612.34;2085376;28;19964;-49
2023/05/25 04:21:20;;;;;;;;;;;;;;;20.93;72.06;98613.16;2073622;28;20017;-51
2023/05/25 04:22:21;;;;;;;;;;;;;;;20.92;72.03;98615.03;2082036;28;19931;-53
2023/05/25 04:23:22;;;;;;;;;;;;;;;20.92;71.98;98611.50;2082882;28;20074;-50
2023/05/25 04:24:23;;;;;;;;;;;;;;;20.91;72.15;98615.25;2080262;28;20467;-51
2023/05/25 04:25:24;;;;;;;;;;;;;;;20.91;72.26;98621.44;2080442;28;19977;-52
2023/05/25 04:26:27;;;;;;;;;;;;;;;20.90;72.14;98622.50;2074906;28;21146;-52
2023/05/25 04:27:27;;;;;;;;;;;;;;;20.89;72.33;98620.84;2077368;28;19967;-50
2023/05/25 04:28:29;;;;;;;;;;;;;;;20.89;72.18;98620.03;2081636;28;20059;-52
2023/05/25 04:29:30;;;;;;;;;;;;;;;20.86;72.26;98621.28;2083768;28;19985;-49
2023/05/25 04:30:34;;;;;;;;;;;;;;;20.86;72.33;98628.53;2081480;28;19924;-55
2023/05/25 04:31:34;;;;;;;;;;;;;;;20.86;72.18;98621.28;2080767;28;19921;-53
2023/05/25 04:32:36;;;;;;;;;;;;;;;20.84;72.47;98622.53;2073565;28;19960;-56
2023/05/25 04:33:37;;;;;;;;;;;;;;;20.85;72.38;98624.22;2077235;28;19924;-48
2023/05/25 04:34:41;;;;;;;;;;;;;;;20.85;72.46;98625.03;2072923;28;19928;-51
2023/05/25 04:35:41;;;;;;;;;;;;;;;20.83;72.31;98621.72;2085150;28;19920;-54
2023/05/25 04:36:43;;;;;;;;;;;;;;;20.80;72.16;98622.16;2080416;28;19924;-48
2023/05/25 04:37:45;;;;;;;;;;;;;;;20.83;72.07;98624.41;2082449;28;20639;-50
2023/05/25 04:38:47;;;;;;;;;;;;;;;20.87;72.10;98625.66;2080317;28;19935;-57
2023/05/25 04:39:47;;;;;;;;;;;;;;;20.98;71.91;98621.41;2068949;28;21870;-59
2023/05/25 04:40:49;;;;;;;;;;;;;;;20.98;71.34;98633.03;2083737;28;19924;-56
2023/05/25 04:41:52;;;;;;;;;;;;;;;21.01;71.63;98631.78;2085790;28;19940;-50
2023/05/25 04:42:54;;;;;;;;;;;;;;;21.01;71.95;98631.78;2085051;28;19928;-54
2023/05/25 04:43:55;;;;;;;;;;;;;;;21.01;71.68;98633.63;2084920;28;20017;-54
2023/05/25 04:44:57;;;;;;;;;;;;;;;20.99;71.85;98633.84;2075071;28;19929;-56
2023/05/25 04:45:58;;;;;;;;;;;;;;;20.94;71.86;98631.78;2083379;28;20052;-55
2023/05/25 04:47:01;;;;;;;;;;;;;;;20.92;71.78;98628.53;2084883;28;20661;-53
2023/05/25 04:48:01;;;;;;;;;;;;;;;20.90;72.16;98637.88;2082229;28;19925;-53
2023/05/25 04:49:04;;;;;;;;;;;;;;;20.86;72.14;98631.25;2084570;28;20318;-55
2023/05/25 04:50:05;;;;;;;;;;;;;;;20.86;72.07;98633.94;2079919;28;19928;-53
2023/05/25 04:51:06;;;;;;;;;;;;;;;20.84;71.95;98641.41;2080735;28;19951;-52
2023/05/25 04:52:07;;;;;;;;;;;;;;;20.83;72.25;98639.78;2083141;28;19979;-52
2023/05/25 04:53:08;;;;;;;;;;;;;;;20.82;72.26;98641.66;2080834;28;20429;-53
2023/05/25 04:54:09;;;;;;;;;;;;;;;20.80;72.17;98640.22;2081714;28;19928;-52
2023/05/25 04:55:11;;;;;;;;;;;;;;;20.79;72.15;98641.25;2076663;28;19928;-51
2023/05/25 04:56:11;;;;;;;;;;;;;;;20.78;72.15;98639.59;2076298;28;19924;-50
2023/05/25 04:57:14;;;;;;;;;;;;;;;20.78;72.24;98642.28;2071175;28;19928;-51
2023/05/25 04:58:14;;;;;;;;;;;;;;;20.73;72.08;98633.00;2082659;28;20597;-54
2023/05/25 04:59:16;;;;;;;;;;;;;;;20.77;72.06;98640.66;2080026;28;20001;-56
2023/05/25 05:00:17;;;;;;;;;;;;;;;20.76;72.25;98639.81;2074654;28;20352;-51
2023/05/25 05:01:19;;;;;;;;;;;;;;;20.75;72.18;98639.00;2060516;28;19932;-53
2023/05/25 05:02:20;;;;;;;;;;;;;;;20.78;72.08;98640.41;2079514;28;19924;-56
2023/05/25 05:03:22;;;;;;;;;;;;;;;20.80;72.02;98642.91;2073106;28;20051;-49
2023/05/25 05:04:23;;;;;;;;;;;;;;;20.78;72.23;98643.09;2073390;28;19956;-53
2023/05/25 05:05:24;;;;;;;;;;;;;;;20.77;72.05;98644.16;2074380;28;19928;-50
2023/05/25 05:06:25;;;;;;;;;;;;;;;20.77;72.02;98644.16;2080927;28;20527;-51
2023/05/25 05:07:27;;;;;;;;;;;;;;;20.77;71.88;98637.94;2080042;28;19939;-56
2023/05/25 05:08:28;;;;;;;;;;;;;;;20.73;71.85;98643.78;2077471;28;19924;-53
2023/05/25 05:09:29;;;;;;;;;;;;;;;20.74;72.14;98656.19;2076360;28;20011;-52
2023/05/25 05:10:30;;;;;;;;;;;;;;;20.70;72.21;98652.31;2079152;28;19974;-51
2023/05/25 05:11:31;;;;;;;;;;;;;;;20.71;71.92;98653.94;2084840;28;19994;-54
2023/05/25 05:12:33;;;;;;;;;;;;;;;20.70;72.29;98652.31;2079219;28;20325;-56
2023/05/25 05:13:34;;;;;;;;;;;;;;;20.70;72.07;98655.00;2084405;28;19966;-53
2023/05/25 05:14:35;;;;;;;;;;;;;;;20.70;72.06;98652.31;2078752;28;19928;-55
2023/05/25 05:15:36;;;;;;;;;;;;;;;20.68;72.35;98646.28;2081800;28;19936;-48
2023/05/25 05:16:37;;;;;;;;;;;;;;;20.70;71.82;98646.91;2077773;28;19993;-51
2023/05/25 05:17:38;;;;;;;;;;;;;;;20.67;72.25;98652.72;2082555;28;19947;-54
2023/05/25 05:18:39;;;;;;;;;;;;;;;20.72;72.03;98652.06;2074340;28;19925;-53
2023/05/25 05:19:40;;;;;;;;;;;;;;;20.79;71.58;98660.13;2075672;28;20038;-52
2023/05/25 05:20:41;;;;;;;;;;;;;;;20.82;71.54;98665.09;2075300;28;19921;-52